Time;durP1;ratioP1;P1;durP2;ratioP2;P2;SDS_P1;SDS_P2;PMS_P1;PMS_P2;Temp;Humidity;BMP_temperature;BMP_pressure;BME280_temperature;BME280_humidity;BME280_pressure;Samples;Min_cycle;Max_cycle;Signal;HPM_P1;HPM_P2
2022/01/21 00:02:11;;;;;;;;;8.25;6.00;;;;;;;;5013386;28;45435;-71
2022/01/21 00:04:36;;;;;;;;;7.50;7.50;;;;;;;;5012198;28;45399;-72
2022/01/21 00:07:02;;;;;;;;;9.00;5.25;;;;;;;;5012452;28;45451;-72
2022/01/21 00:09:27;;;;;;;;;7.00;5.00;;;;;;;;5016095;28;46897;-72
2022/01/21 00:11:52;;;;;;;;;2.00;2.00;;;;;;;;5014778;28;45363;-72
2022/01/21 00:14:17;;;;;;;;;8.50;4.25;;;;;;;;5012858;28;45467;-71
2022/01/21 00:16:43;;;;;;;;;10.00;7.25;;;;;;;;5012589;28;45507;-72
2022/01/21 00:19:12;;;;;;;;;7.75;5.00;;;;;;;;5016108;28;46290;-72
2022/01/21 00:30:13;;;;;;;;;7.50;7.50;;;;;;;;5000633;28;45960;-72
2022/01/21 00:32:39;;;;;;;;;13.50;8.75;;;;;;;;5015579;28;45426;-72
2022/01/21 00:35:05;;;;;;;;;13.25;9.00;;;;;;;;5012295;28;45313;-72
2022/01/21 00:37:30;;;;;;;;;12.00;7.00;;;;;;;;5014622;28;45515;-72
2022/01/21 00:39:58;;;;;;;;;8.50;4.00;;;;;;;;5011350;28;45983;-72
2022/01/21 00:44:51;;;;;;;;;9.00;7.75;;;;;;;;5015005;28;45597;-72
2022/01/21 00:47:16;;;;;;;;;9.25;7.75;;;;;;;;5012808;28;45455;-72
2022/01/21 00:49:41;;;;;;;;;10.25;8.00;;;;;;;;5010795;28;47362;-72
2022/01/21 00:52:06;;;;;;;;;7.75;6.25;;;;;;;;5011083;28;45543;-72
2022/01/21 00:54:32;;;;;;;;;8.50;8.00;;;;;;;;5011409;28;45307;-72
2022/01/21 00:56:57;;;;;;;;;10.75;9.00;;;;;;;;5015759;28;45537;-71
2022/01/21 00:59:22;;;;;;;;;7.75;5.75;;;;;;;;5015586;28;46221;-72
2022/01/21 01:01:48;;;;;;;;;9.50;7.50;;;;;;;;5016209;28;45564;-71
2022/01/21 01:04:13;;;;;;;;;7.25;4.25;;;;;;;;5015481;28;45529;-72
2022/01/21 01:06:38;;;;;;;;;10.25;7.25;;;;;;;;5015097;28;45549;-71
2022/01/21 01:09:04;;;;;;;;;9.75;8.25;;;;;;;;5015464;28;45410;-71
2022/01/21 01:22:07;;;;;;;;;8.00;5.50;;;;;;;;5014817;28;45553;-71
2022/01/21 01:29:54;;;;;;;;;8.00;8.00;;;;;;;;5000626;28;45860;-72
2022/01/21 01:32:20;;;;;;;;;8.50;6.75;;;;;;;;5015167;28;45363;-72
2022/01/21 01:34:45;;;;;;;;;4.75;4.75;;;;;;;;5012767;28;45414;-72
2022/01/21 01:37:20;;;;;;;;;10.75;9.00;;;;;;;;5014862;28;45319;-72
2022/01/21 01:39:58;;;;;;;;;7.50;5.50;;;;;;;;5014835;28;46125;-72
2022/01/21 01:50:26;;;;;;;;;10.50;7.00;;;;;;;;5012676;28;45914;-71
2022/01/21 01:52:51;;;;;;;;;8.75;6.50;;;;;;;;5011145;28;45477;-72
2022/01/21 01:55:17;;;;;;;;;8.25;7.25;;;;;;;;5010594;28;45477;-72
2022/01/21 01:57:42;;;;;;;;;4.75;4.75;;;;;;;;5010471;28;45359;-72
2022/01/21 02:00:07;;;;;;;;;7.75;5.50;;;;;;;;5011810;28;45347;-73
2022/01/21 02:02:33;;;;;;;;;10.50;8.00;;;;;;;;5013799;28;45788;-72
2022/01/21 02:04:58;;;;;;;;;5.00;5.00;;;;;;;;5010813;28;45500;-72
2022/01/21 02:07:23;;;;;;;;;5.25;5.25;;;;;;;;5010339;28;45521;-72
2022/01/21 02:09:48;;;;;;;;;7.50;6.75;;;;;;;;5010465;28;46363;-72
2022/01/21 02:12:13;;;;;;;;;6.00;4.00;;;;;;;;5010763;28;45371;-72
2022/01/21 02:14:47;;;;;;;;;5.25;5.25;;;;;;;;5014195;28;45505;-72
2022/01/21 02:21:26;;;;;;;;;8.50;6.50;;;;;;;;5011583;28;45264;-72
2022/01/21 02:22:46;;;;;;;;;4.00;4.00;;;;;;;;4999115;28;45402;-71
2022/01/21 02:25:16;;;;;;;;;8.50;4.00;;;;;;;;5010808;28;45336;-72
2022/01/21 02:27:42;;;;;;;;;8.75;6.00;;;;;;;;5014381;28;45500;-71
2022/01/21 02:30:08;;;;;;;;;6.50;6.50;;;;;;;;5014362;28;46314;-72
2022/01/21 02:32:33;;;;;;;;;9.00;5.50;;;;;;;;5013993;28;45478;-72
2022/01/21 02:34:58;;;;;;;;;7.00;5.25;;;;;;;;5015376;28;45528;-72
2022/01/21 02:37:24;;;;;;;;;7.00;7.00;;;;;;;;5016989;28;45404;-72
2022/01/21 02:39:49;;;;;;;;;9.00;7.50;;;;;;;;5012815;28;46450;-72
2022/01/21 02:42:15;;;;;;;;;6.50;6.00;;;;;;;;5014046;28;45317;-72
2022/01/21 02:44:40;;;;;;;;;8.25;5.75;;;;;;;;5017601;28;45387;-71
2022/01/21 02:47:06;;;;;;;;;10.00;8.75;;;;;;;;5013929;28;45617;-72
2022/01/21 02:49:32;;;;;;;;;8.25;8.25;;;;;;;;5013425;28;46931;-71
2022/01/21 02:52:00;;;;;;;;;9.00;5.25;;;;;;;;5013372;28;45518;-72
2022/01/21 02:54:26;;;;;;;;;16.75;14.00;;;;;;;;5013353;28;45284;-72
2022/01/21 02:56:51;;;;;;;;;8.00;5.50;;;;;;;;5017141;28;45447;-72
2022/01/21 02:59:16;;;;;;;;;5.00;1.75;;;;;;;;5014533;28;46220;-72
2022/01/21 03:01:43;;;;;;;;;5.75;5.50;;;;;;;;5017594;28;45460;-72
2022/01/21 03:04:09;;;;;;;;;8.75;7.00;;;;;;;;5017292;28;45422;-73
2022/01/21 03:06:37;;;;;;;;;13.00;4.75;;;;;;;;5017769;28;45520;-71
2022/01/21 03:09:03;;;;;;;;;8.25;7.50;;;;;;;;5014993;28;45522;-72
2022/01/21 03:11:28;;;;;;;;;8.50;6.50;;;;;;;;5015860;28;45393;-70
2022/01/21 03:13:54;;;;;;;;;7.00;7.00;;;;;;;;5013924;28;45500;-72
2022/01/21 03:16:19;;;;;;;;;8.25;7.00;;;;;;;;5012695;28;45444;-71
2022/01/21 03:18:44;;;;;;;;;8.75;4.75;;;;;;;;5012604;28;45895;-70
2022/01/21 03:21:15;;;;;;;;;11.75;7.25;;;;;;;;5013946;28;45351;-70
2022/01/21 03:23:41;;;;;;;;;6.75;6.75;;;;;;;;5017448;28;45475;-72
2022/01/21 03:26:06;;;;;;;;;8.50;7.50;;;;;;;;5014659;28;45575;-72
2022/01/21 03:28:31;;;;;;;;;8.25;8.25;;;;;;;;5007048;28;46170;-72
2022/01/21 03:30:57;;;;;;;;;13.00;8.25;;;;;;;;5010837;28;45435;-72
2022/01/21 03:33:25;;;;;;;;;7.25;7.25;;;;;;;;5012822;28;45646;-72
2022/01/21 03:35:51;;;;;;;;;6.00;6.00;;;;;;;;5016380;28;45574;-72
2022/01/21 03:38:16;;;;;;;;;7.25;4.25;;;;;;;;5013932;28;46970;-72
2022/01/21 03:40:42;;;;;;;;;5.75;5.75;;;;;;;;5013014;28;45160;-72
2022/01/21 03:43:07;;;;;;;;;8.75;7.25;;;;;;;;5012653;28;45302;-72
2022/01/21 03:45:32;;;;;;;;;5.25;5.25;;;;;;;;5017392;28;45468;-72
2022/01/21 03:47:58;;;;;;;;;11.25;7.00;;;;;;;;5014949;28;49853;-72
2022/01/21 03:52:48;;;;;;;;;7.25;7.00;;;;;;;;5013287;28;45363;-72
2022/01/21 03:55:14;;;;;;;;;7.50;6.00;;;;;;;;5012190;28;45417;-74
2022/01/21 03:57:39;;;;;;;;;8.50;4.25;;;;;;;;5011768;28;46313;-72
2022/01/21 04:00:06;;;;;;;;;11.25;4.00;;;;;;;;5013138;28;45351;-72
2022/01/21 04:02:31;;;;;;;;;6.75;6.00;;;;;;;;5015299;28;45450;-72
2022/01/21 04:04:56;;;;;;;;;11.25;10.00;;;;;;;;5012931;28;45766;-72
2022/01/21 04:07:21;;;;;;;;;8.75;5.50;;;;;;;;5003042;28;45376;-72
2022/01/21 04:09:47;;;;;;;;;8.00;8.00;;;;;;;;5009125;28;45554;-72
2022/01/21 04:12:12;;;;;;;;;5.25;3.00;;;;;;;;5012778;28;45513;-72
2022/01/21 04:14:37;;;;;;;;;7.75;7.75;;;;;;;;5015354;28;45526;-72
2022/01/21 04:17:03;;;;;;;;;14.25;9.75;;;;;;;;5012505;28;47130;-72
2022/01/21 04:19:28;;;;;;;;;9.00;7.50;;;;;;;;5011340;28;45492;-73
2022/01/21 04:21:53;;;;;;;;;8.75;8.00;;;;;;;;5011935;28;45619;-72
2022/01/21 04:24:18;;;;;;;;;11.75;8.25;;;;;;;;5011675;28;45377;-72
2022/01/21 04:26:44;;;;;;;;;9.00;8.00;;;;;;;;5015982;28;45553;-72
2022/01/21 04:29:09;;;;;;;;;11.75;9.25;;;;;;;;5012258;28;45521;-72
2022/01/21 04:31:34;;;;;;;;;11.00;9.00;;;;;;;;5011738;28;45406;-72
2022/01/21 04:33:59;;;;;;;;;9.50;8.25;;;;;;;;5011631;28;45426;-72
2022/01/21 04:36:24;;;;;;;;;7.75;7.00;;;;;;;;5011190;28;45636;-72
2022/01/21 04:38:53;;;;;;;;;4.50;4.50;;;;;;;;5014702;28;45495;-72
2022/01/21 04:47:17;;;;;;;;;9.50;7.00;;;;;;;;4959262;28;45338;-72
2022/01/21 04:49:43;;;;;;;;;10.50;8.00;;;;;;;;4959146;28;45309;-72
2022/01/21 04:52:08;;;;;;;;;4.00;3.00;;;;;;;;4958790;28;45339;-72
2022/01/21 04:54:34;;;;;;;;;7.00;4.00;;;;;;;;4958821;28;45352;-72
2022/01/21 04:57:00;;;;;;;;;7.50;4.75;;;;;;;;4954297;28;46187;-72
2022/01/21 04:59:26;;;;;;;;;8.25;7.00;;;;;;;;4969140;28;46569;-72
2022/01/21 05:01:52;;;;;;;;;11.25;10.00;;;;;;;;4959138;28;45506;-72
2022/01/21 05:04:18;;;;;;;;;9.50;8.00;;;;;;;;4958382;28;45588;-72
2022/01/21 05:06:44;;;;;;;;;7.25;7.00;;;;;;;;4958428;28;45429;-73
2022/01/21 05:09:09;;;;;;;;;12.50;10.50;;;;;;;;4957474;28;45436;-73
2022/01/21 05:11:37;;;;;;;;;11.50;8.00;;;;;;;;4954847;28;45553;-73
2022/01/21 05:14:15;;;;;;;;;10.75;10.75;;;;;;;;4955153;28;45452;-73
2022/01/21 05:16:46;;;;;;;;;6.00;6.00;;;;;;;;4958291;28;46388;-72
2022/01/21 05:19:16;;;;;;;;;11.25;4.75;;;;;;;;4958748;28;45481;-72
2022/01/21 05:21:46;;;;;;;;;7.00;4.00;;;;;;;;4998503;28;45405;-72
2022/01/21 05:24:11;;;;;;;;;10.00;7.75;;;;;;;;5015368;28;45316;-73
2022/01/21 05:26:39;;;;;;;;;9.00;6.50;;;;;;;;5014560;28;46886;-72
2022/01/21 05:29:05;;;;;;;;;6.75;5.25;;;;;;;;5015602;28;45360;-72
2022/01/21 05:31:31;;;;;;;;;8.00;8.00;;;;;;;;5010516;28;45340;-72
2022/01/21 05:33:56;;;;;;;;;5.50;4.25;;;;;;;;5010401;28;45751;-72
2022/01/21 05:36:21;;;;;;;;;8.00;8.00;;;;;;;;5010266;28;46650;-73
2022/01/21 05:38:46;;;;;;;;;9.00;7.50;;;;;;;;5014996;28;45793;-73
2022/01/21 05:41:13;;;;;;;;;8.00;5.00;;;;;;;;5015177;28;45387;-72
2022/01/21 05:43:44;;;;;;;;;16.25;13.00;;;;;;;;5014593;28;45438;-73
2022/01/21 05:48:53;;;;;;;;;7.75;4.75;;;;;;;;5010155;28;45443;-73
2022/01/21 05:51:19;;;;;;;;;7.00;5.75;;;;;;;;5010714;28;45340;-73
2022/01/21 05:53:45;;;;;;;;;5.50;5.50;;;;;;;;5015101;28;45338;-73
2022/01/21 05:56:11;;;;;;;;;7.50;6.75;;;;;;;;5010348;28;45892;-71
2022/01/21 05:58:37;;;;;;;;;10.75;5.75;;;;;;;;5009725;28;45544;-72
2022/01/21 06:01:02;;;;;;;;;8.00;7.25;;;;;;;;5010060;28;45402;-71
2022/01/21 06:03:27;;;;;;;;;7.50;4.00;;;;;;;;5009765;28;45353;-72
2022/01/21 06:05:52;;;;;;;;;11.00;7.00;;;;;;;;5013220;28;45915;-72
2022/01/21 06:08:18;;;;;;;;;8.00;5.25;;;;;;;;5010914;28;45393;-71
2022/01/21 06:10:43;;;;;;;;;8.25;7.75;;;;;;;;5012999;28;45521;-71
2022/01/21 06:13:08;;;;;;;;;9.00;8.00;;;;;;;;5014056;28;45449;-71
2022/01/21 06:15:35;;;;;;;;;7.25;7.00;;;;;;;;5009051;28;45956;-72
2022/01/21 06:18:00;;;;;;;;;11.25;9.75;;;;;;;;5013655;28;45518;-73
2022/01/21 06:20:26;;;;;;;;;9.00;7.50;;;;;;;;5013518;28;45343;-73
2022/01/21 06:22:51;;;;;;;;;8.25;6.00;;;;;;;;5010011;28;45190;-72
2022/01/21 06:25:17;;;;;;;;;7.75;5.75;;;;;;;;5008810;28;47207;-73
2022/01/21 06:27:44;;;;;;;;;3.50;3.50;;;;;;;;5009653;28;45346;-72
2022/01/21 06:30:09;;;;;;;;;8.00;8.00;;;;;;;;5010294;28;45286;-73
2022/01/21 06:32:35;;;;;;;;;12.00;8.00;;;;;;;;5012631;28;45582;-73
2022/01/21 06:35:00;;;;;;;;;10.00;10.00;;;;;;;;5009265;28;45332;-72
2022/01/21 06:37:25;;;;;;;;;7.00;7.00;;;;;;;;5008531;28;45232;-72
2022/01/21 06:39:50;;;;;;;;;16.25;13.75;;;;;;;;5008371;28;45260;-71
2022/01/21 06:42:21;;;;;;;;;7.00;7.00;;;;;;;;5008774;28;45530;-76
2022/01/21 06:44:47;;;;;;;;;7.00;5.25;;;;;;;;4997209;28;46390;-77
2022/01/21 06:47:12;;;;;;;;;9.00;8.25;;;;;;;;5010144;28;45268;-77
2022/01/21 06:49:37;;;;;;;;;9.25;8.50;;;;;;;;5012568;28;45331;-77
2022/01/21 06:52:02;;;;;;;;;12.25;7.50;;;;;;;;5012557;28;45375;-77
2022/01/21 06:54:28;;;;;;;;;9.25;8.00;;;;;;;;5012357;28;46290;-77
2022/01/21 06:56:53;;;;;;;;;10.00;7.00;;;;;;;;5012656;28;45541;-77
2022/01/21 06:59:18;;;;;;;;;5.75;5.75;;;;;;;;5013198;28;45464;-72
2022/01/21 07:01:43;;;;;;;;;11.75;7.50;;;;;;;;5013246;28;45443;-72
2022/01/21 07:04:08;;;;;;;;;11.50;7.50;;;;;;;;5007336;28;46134;-77
2022/01/21 07:06:34;;;;;;;;;9.25;8.50;;;;;;;;5008327;28;45453;-78
2022/01/21 07:08:59;;;;;;;;;10.75;8.50;;;;;;;;5010380;28;45360;-74
2022/01/21 07:11:24;;;;;;;;;8.75;5.75;;;;;;;;5009969;28;45516;-73
2022/01/21 07:13:49;;;;;;;;;11.00;9.25;;;;;;;;5008220;28;46782;-74
2022/01/21 07:16:15;;;;;;;;;9.50;7.00;;;;;;;;5007803;28;45459;-73
2022/01/21 07:18:40;;;;;;;;;9.75;9.75;;;;;;;;5007773;28;45416;-73
2022/01/21 07:21:05;;;;;;;;;9.25;6.00;;;;;;;;5009284;28;45487;-73
2022/01/21 07:23:30;;;;;;;;;15.00;8.50;;;;;;;;5013145;28;46811;-73
2022/01/21 07:25:55;;;;;;;;;8.00;4.25;;;;;;;;5010658;28;45330;-74
2022/01/21 07:28:21;;;;;;;;;10.75;8.25;;;;;;;;5016728;28;45446;-74
2022/01/21 07:30:46;;;;;;;;;10.25;9.50;;;;;;;;5017351;28;45431;-74
2022/01/21 07:33:13;;;;;;;;;13.00;9.75;;;;;;;;5014231;28;47243;-75
2022/01/21 07:35:38;;;;;;;;;10.75;9.75;;;;;;;;5030261;28;45316;-74
2022/01/21 07:38:03;;;;;;;;;7.75;5.50;;;;;;;;5012032;28;45335;-74
2022/01/21 07:40:29;;;;;;;;;12.25;9.25;;;;;;;;5011176;28;45439;-73
2022/01/21 07:42:54;;;;;;;;;14.25;11.75;;;;;;;;5012049;28;45506;-73
2022/01/21 07:45:19;;;;;;;;;9.00;9.00;;;;;;;;5014659;28;45452;-74
2022/01/21 07:47:44;;;;;;;;;6.25;6.25;;;;;;;;5012038;28;45467;-74
2022/01/21 07:50:10;;;;;;;;;9.00;7.75;;;;;;;;5010881;28;45381;-75
2022/01/21 07:52:35;;;;;;;;;9.25;8.00;;;;;;;;5010318;28;46167;-73
2022/01/21 07:55:00;;;;;;;;;8.00;8.00;;;;;;;;5010024;28;45419;-74
2022/01/21 07:57:25;;;;;;;;;11.00;9.50;;;;;;;;5010528;28;45343;-74
2022/01/21 07:59:51;;;;;;;;;15.25;14.25;;;;;;;;5014371;28;45414;-74
2022/01/21 08:02:17;;;;;;;;;10.00;10.00;;;;;;;;5014524;28;46069;-74
2022/01/21 08:04:43;;;;;;;;;13.75;9.00;;;;;;;;5015083;28;45291;-74
2022/01/21 08:07:10;;;;;;;;;15.75;10.25;;;;;;;;5009937;28;45387;-73
2022/01/21 08:09:35;;;;;;;;;14.50;10.50;;;;;;;;5010383;28;45295;-74
2022/01/21 08:12:00;;;;;;;;;12.50;11.00;;;;;;;;5012256;28;46286;-74
2022/01/21 08:14:26;;;;;;;;;11.25;11.25;;;;;;;;5011790;28;45249;-73
2022/01/21 08:16:53;;;;;;;;;10.25;8.00;;;;;;;;5010934;28;45380;-74
2022/01/21 08:19:18;;;;;;;;;14.00;9.75;;;;;;;;5010021;28;45538;-73
2022/01/21 08:21:43;;;;;;;;;15.00;11.25;;;;;;;;5010454;28;47174;-72
2022/01/21 08:24:09;;;;;;;;;9.00;9.00;;;;;;;;5010948;28;45444;-72
2022/01/21 08:26:35;;;;;;;;;9.50;9.50;;;;;;;;5012903;28;45400;-71
2022/01/21 08:29:02;;;;;;;;;12.00;9.00;;;;;;;;5013811;28;45535;-73
2022/01/21 08:31:27;;;;;;;;;16.75;14.50;;;;;;;;5009509;28;47642;-72
2022/01/21 08:33:52;;;;;;;;;13.75;13.75;;;;;;;;5008806;28;45411;-73
2022/01/21 08:36:18;;;;;;;;;14.75;11.75;;;;;;;;5009838;28;45369;-73
2022/01/21 08:38:43;;;;;;;;;14.00;11.75;;;;;;;;5014162;28;45471;-73
2022/01/21 08:41:09;;;;;;;;;13.75;10.75;;;;;;;;5014382;28;45459;-72
2022/01/21 08:43:34;;;;;;;;;18.50;14.75;;;;;;;;5010384;28;45794;-74
2022/01/21 08:45:59;;;;;;;;;10.00;7.75;;;;;;;;5013190;28;45528;-73
2022/01/21 08:48:24;;;;;;;;;12.00;10.00;;;;;;;;5008773;28;45404;-73
2022/01/21 08:50:50;;;;;;;;;16.50;13.75;;;;;;;;5029098;28;46333;-73
2022/01/21 08:53:36;;;;;;;;;10.75;8.50;;;;;;;;5011243;28;45206;-73
2022/01/21 08:56:00;;;;;;;;;16.25;12.75;;;;;;;;5014287;28;45605;-72
2022/01/21 08:58:26;;;;;;;;;11.00;11.00;;;;;;;;5012844;28;45435;-74
2022/01/21 09:00:52;;;;;;;;;14.75;10.75;;;;;;;;5009785;28;45376;-72
2022/01/21 09:03:17;;;;;;;;;17.25;16.00;;;;;;;;5011328;28;46726;-71
2022/01/21 09:05:48;;;;;;;;;16.00;14.00;;;;;;;;5015354;28;45439;-73
2022/01/21 09:08:14;;;;;;;;;17.50;15.00;;;;;;;;5012302;28;45350;-72
2022/01/21 09:10:39;;;;;;;;;11.75;10.00;;;;;;;;5014899;28;46510;-72
2022/01/21 09:13:04;;;;;;;;;18.00;16.75;;;;;;;;5014220;28;45455;-74
2022/01/21 09:15:31;;;;;;;;;16.25;14.75;;;;;;;;5008735;28;45197;-73
2022/01/21 09:18:02;;;;;;;;;12.75;12.00;;;;;;;;5012745;28;45622;-73
2022/01/21 09:20:28;;;;;;;;;27.25;25.75;;;;;;;;5011698;28;46353;-73
2022/01/21 09:22:53;;;;;;;;;23.50;17.75;;;;;;;;5010358;28;45483;-74
2022/01/21 09:25:18;;;;;;;;;15.50;11.00;;;;;;;;5014286;28;45435;-73
2022/01/21 09:27:43;;;;;;;;;16.50;9.00;;;;;;;;5010362;28;45501;-73
2022/01/21 09:30:09;;;;;;;;;11.75;10.50;;;;;;;;5010980;28;46126;-74
2022/01/21 09:32:35;;;;;;;;;12.25;12.25;;;;;;;;5013522;28;45336;-73
2022/01/21 09:35:00;;;;;;;;;11.50;11.00;;;;;;;;5013690;28;45428;-72
2022/01/21 09:37:25;;;;;;;;;8.75;8.75;;;;;;;;5023198;28;45657;-74
2022/01/21 09:39:50;;;;;;;;;13.25;13.25;;;;;;;;5024243;28;46074;-74
2022/01/21 09:42:16;;;;;;;;;17.75;13.00;;;;;;;;5025612;28;45363;-74
2022/01/21 09:44:44;;;;;;;;;16.25;13.25;;;;;;;;5029453;28;45511;-73
2022/01/21 09:47:11;;;;;;;;;18.50;15.25;;;;;;;;5026548;28;45269;-74
2022/01/21 09:49:41;;;;;;;;;16.25;12.25;;;;;;;;5013610;28;46093;-73
2022/01/21 09:52:07;;;;;;;;;19.50;16.25;;;;;;;;5013626;28;45354;-73
2022/01/21 09:54:34;;;;;;;;;14.75;14.00;;;;;;;;5014184;28;47226;-73
2022/01/21 09:57:01;;;;;;;;;12.25;11.25;;;;;;;;5014325;28;45467;-74
2022/01/21 09:59:28;;;;;;;;;12.25;11.25;;;;;;;;5013967;28;46432;-74
2022/01/21 10:01:55;;;;;;;;;15.75;12.75;;;;;;;;5014193;28;45402;-74
2022/01/21 10:04:24;;;;;;;;;15.00;12.25;;;;;;;;5009752;28;45816;-71
2022/01/21 10:06:49;;;;;;;;;11.50;10.25;;;;;;;;5005488;28;45458;-72
2022/01/21 10:09:16;;;;;;;;;16.50;12.75;;;;;;;;5002605;28;45275;-72
2022/01/21 10:11:48;;;;;;;;;16.75;12.75;;;;;;;;5014402;28;45633;-72
2022/01/21 10:14:13;;;;;;;;;15.50;12.00;;;;;;;;5010553;28;45512;-73
2022/01/21 10:16:38;;;;;;;;;18.50;12.75;;;;;;;;5012863;28;45398;-72
2022/01/21 10:19:05;;;;;;;;;15.25;14.00;;;;;;;;5013676;28;45541;-73
2022/01/21 10:21:35;;;;;;;;;15.50;14.25;;;;;;;;5013006;28;45324;-74
2022/01/21 10:24:08;;;;;;;;;13.50;10.25;;;;;;;;5013283;28;45389;-73
2022/01/21 10:26:33;;;;;;;;;20.50;16.00;;;;;;;;5012996;28;45355;-74
2022/01/21 10:28:58;;;;;;;;;13.00;12.00;;;;;;;;5013636;28;46091;-74
2022/01/21 10:31:25;;;;;;;;;19.50;17.75;;;;;;;;5012652;28;45303;-73
2022/01/21 10:33:52;;;;;;;;;15.25;13.75;;;;;;;;5012702;28;45400;-73
2022/01/21 10:36:26;;;;;;;;;19.00;14.00;;;;;;;;5008378;28;45507;-74
2022/01/21 10:38:55;;;;;;;;;21.75;12.50;;;;;;;;4998063;28;47289;-73
2022/01/21 10:41:21;;;;;;;;;16.75;13.50;;;;;;;;5010249;28;45328;-72
2022/01/21 10:44:04;;;;;;;;;11.50;10.00;;;;;;;;5008827;28;45187;-72
2022/01/21 10:46:29;;;;;;;;;17.25;13.50;;;;;;;;5008542;28;45414;-74
2022/01/21 10:48:56;;;;;;;;;18.00;17.00;;;;;;;;5009345;28;47140;-74
2022/01/21 10:51:25;;;;;;;;;15.25;12.50;;;;;;;;5008779;28;45405;-73
2022/01/21 10:53:51;;;;;;;;;17.25;14.00;;;;;;;;4998625;28;45626;-73
2022/01/21 10:56:17;;;;;;;;;16.50;13.75;;;;;;;;5028610;28;45224;-73
2022/01/21 10:58:43;;;;;;;;;18.00;14.50;;;;;;;;5016248;28;45495;-74
2022/01/21 11:01:17;;;;;;;;;15.75;12.50;;;;;;;;5015775;28;45424;-71
2022/01/21 11:04:01;;;;;;;;;12.75;11.50;;;;;;;;5016344;28;45417;-74
2022/01/21 11:06:34;;;;;;;;;22.25;14.50;;;;;;;;5016298;28;45468;-74
2022/01/21 11:09:18;;;;;;;;;14.50;13.25;;;;;;;;5015587;28;45674;-74
2022/01/21 11:11:44;;;;;;;;;22.50;15.75;;;;;;;;5000115;28;45300;-74
2022/01/21 11:14:11;;;;;;;;;18.75;17.75;;;;;;;;5012307;28;45263;-73
2022/01/21 11:16:38;;;;;;;;;26.00;20.50;;;;;;;;5015301;28;45202;-73
2022/01/21 11:19:08;;;;;;;;;23.00;21.50;;;;;;;;5015606;28;46290;-73
2022/01/21 11:21:42;;;;;;;;;14.25;11.75;;;;;;;;5011728;28;45507;-74
2022/01/21 11:24:08;;;;;;;;;16.00;11.00;;;;;;;;5016139;28;45289;-74
2022/01/21 11:26:34;;;;;;;;;25.00;14.50;;;;;;;;5016470;28;45340;-74
2022/01/21 11:29:00;;;;;;;;;12.25;10.25;;;;;;;;5016335;28;46999;-71
2022/01/21 11:31:27;;;;;;;;;18.00;13.50;;;;;;;;5015326;28;45850;-74
2022/01/21 11:33:52;;;;;;;;;20.75;15.25;;;;;;;;5015604;28;45567;-73
2022/01/21 11:36:18;;;;;;;;;22.50;18.75;;;;;;;;5016136;28;45487;-74
2022/01/21 11:38:45;;;;;;;;;13.50;11.25;;;;;;;;4999600;28;47255;-73
2022/01/21 11:41:11;;;;;;;;;17.25;17.25;;;;;;;;5016451;28;45506;-74
2022/01/21 11:43:38;;;;;;;;;19.00;15.00;;;;;;;;5015057;28;45876;-74
2022/01/21 11:46:26;;;;;;;;;15.75;13.75;;;;;;;;5001799;28;45364;-74
2022/01/21 11:48:53;;;;;;;;;10.50;10.50;;;;;;;;5008300;28;45469;-74
2022/01/21 11:51:30;;;;;;;;;11.00;8.25;;;;;;;;5012658;28;45348;-73
2022/01/21 11:53:57;;;;;;;;;12.50;10.00;;;;;;;;5011679;28;45419;-73
2022/01/21 11:56:31;;;;;;;;;12.50;12.00;;;;;;;;5013928;28;45578;-73
2022/01/21 11:59:23;;;;;;;;;8.25;7.00;;;;;;;;5012444;28;45992;-73
2022/01/21 12:01:49;;;;;;;;;15.00;11.75;;;;;;;;5014206;28;45614;-73
2022/01/21 12:04:34;;;;;;;;;7.25;7.25;;;;;;;;5014946;28;45427;-73
2022/01/21 12:07:00;;;;;;;;;16.75;15.25;;;;;;;;5004555;28;45538;-72
2022/01/21 12:09:44;;;;;;;;;7.50;7.50;;;;;;;;5012725;28;47171;-73
2022/01/21 12:12:09;;;;;;;;;9.75;8.00;;;;;;;;5014846;28;45665;-72
2022/01/21 12:14:42;;;;;;;;;5.50;5.25;;;;;;;;5015288;28;45394;-72
2022/01/21 12:17:17;;;;;;;;;14.25;7.75;;;;;;;;5010850;28;45524;-73
2022/01/21 12:19:42;;;;;;;;;11.25;8.50;;;;;;;;5014172;28;47192;-72
2022/01/21 12:22:11;;;;;;;;;6.75;6.75;;;;;;;;5014202;28;45538;-72
2022/01/21 12:24:47;;;;;;;;;10.75;7.75;;;;;;;;5009264;28;45552;-72
2022/01/21 12:27:13;;;;;;;;;13.25;13.00;;;;;;;;5013172;28;45446;-72
2022/01/21 12:29:39;;;;;;;;;10.75;7.50;;;;;;;;5014349;28;46216;-72
2022/01/21 12:32:13;;;;;;;;;13.50;10.75;;;;;;;;5014711;28;45289;-72
2022/01/21 12:34:57;;;;;;;;;11.50;11.50;;;;;;;;5014180;28;45434;-72
2022/01/21 12:37:26;;;;;;;;;12.25;11.75;;;;;;;;5012341;28;45336;-73
2022/01/21 12:39:51;;;;;;;;;16.50;14.75;;;;;;;;5009581;28;46171;-74
2022/01/21 12:42:19;;;;;;;;;11.25;10.25;;;;;;;;5010642;28;45497;-73
2022/01/21 12:44:44;;;;;;;;;10.50;9.75;;;;;;;;5013383;28;45348;-72
2022/01/21 12:47:28;;;;;;;;;9.75;9.00;;;;;;;;5012966;28;45322;-71
2022/01/21 12:49:55;;;;;;;;;14.75;14.25;;;;;;;;5009086;28;47058;-72
2022/01/21 12:52:43;;;;;;;;;18.00;13.75;;;;;;;;5010453;28;45334;-71
2022/01/21 12:57:54;;;;;;;;;10.75;9.00;;;;;;;;5009604;28;45486;-72
2022/01/21 13:00:19;;;;;;;;;13.25;11.00;;;;;;;;5009398;28;46595;-72
2022/01/21 13:02:48;;;;;;;;;13.75;9.00;;;;;;;;5014223;28;45154;-72
2022/01/21 13:05:17;;;;;;;;;9.25;7.50;;;;;;;;5010438;28;45385;-73
2022/01/21 13:07:42;;;;;;;;;17.75;15.00;;;;;;;;5008997;28;45744;-73
2022/01/21 13:10:12;;;;;;;;;14.40;13.60;;;;;;;;5009670;28;45991;-72
2022/01/21 13:12:46;;;;;;;;;14.75;14.00;;;;;;;;5008676;28;45559;-72
2022/01/21 13:15:11;;;;;;;;;17.75;12.75;;;;;;;;5010705;28;45279;-72
2022/01/21 13:17:36;;;;;;;;;25.50;20.00;;;;;;;;5013230;28;45636;-72
2022/01/21 13:20:03;;;;;;;;;15.75;14.25;;;;;;;;5014859;28;45746;-72
2022/01/21 13:22:31;;;;;;;;;11.75;10.00;;;;;;;;5014193;28;45544;-72
2022/01/21 13:25:02;;;;;;;;;11.50;11.25;;;;;;;;5014101;28;45515;-72
2022/01/21 13:27:28;;;;;;;;;9.50;7.50;;;;;;;;5014235;28;45383;-72
2022/01/21 13:30:00;;;;;;;;;5.75;4.00;;;;;;;;5013068;28;45432;-73
2022/01/21 13:32:26;;;;;;;;;7.25;7.00;;;;;;;;5011960;28;45313;-73
2022/01/21 13:34:51;;;;;;;;;9.75;9.00;;;;;;;;5009758;28;45181;-72
2022/01/21 13:37:18;;;;;;;;;11.50;10.50;;;;;;;;5009434;28;45461;-72
2022/01/21 13:39:44;;;;;;;;;15.00;14.00;;;;;;;;5009372;28;46212;-71
2022/01/21 13:42:11;;;;;;;;;8.25;6.75;;;;;;;;5011289;28;45518;-71
2022/01/21 13:44:40;;;;;;;;;13.00;7.50;;;;;;;;5013382;28;45504;-71
2022/01/21 13:47:07;;;;;;;;;9.25;7.00;;;;;;;;5011445;28;45319;-72
2022/01/21 13:49:32;;;;;;;;;10.00;8.50;;;;;;;;5009298;28;45526;-72
2022/01/21 13:51:59;;;;;;;;;7.25;6.75;;;;;;;;5009845;28;45581;-72
2022/01/21 13:54:44;;;;;;;;;7.75;7.50;;;;;;;;5012868;28;45320;-71
2022/01/21 13:57:09;;;;;;;;;6.75;5.00;;;;;;;;4998932;28;45453;-72
2022/01/21 13:59:45;;;;;;;;;11.75;11.00;;;;;;;;5013069;28;46133;-72
2022/01/21 14:02:19;;;;;;;;;13.50;12.50;;;;;;;;5010373;28;45349;-72
2022/01/21 14:04:59;;;;;;;;;13.25;10.50;;;;;;;;5013128;28;45280;-72
2022/01/21 14:07:28;;;;;;;;;12.00;8.75;;;;;;;;5008247;28;45364;-71
2022/01/21 14:09:54;;;;;;;;;13.00;10.75;;;;;;;;5008391;28;46262;-73
2022/01/21 14:12:20;;;;;;;;;8.50;7.75;;;;;;;;5009023;28;45440;-72
2022/01/21 14:14:49;;;;;;;;;12.25;9.50;;;;;;;;5013956;28;45280;-71
2022/01/21 14:17:15;;;;;;;;;12.50;10.50;;;;;;;;5010963;28;45724;-71
2022/01/21 14:19:42;;;;;;;;;12.25;8.50;;;;;;;;5008663;28;46226;-73
2022/01/21 14:22:08;;;;;;;;;9.50;7.25;;;;;;;;5012929;28;45696;-73
2022/01/21 14:24:42;;;;;;;;;9.00;9.00;;;;;;;;5012640;28;45655;-72
2022/01/21 14:27:16;;;;;;;;;13.00;13.00;;;;;;;;5013787;28;45546;-72
2022/01/21 14:29:42;;;;;;;;;10.00;8.75;;;;;;;;5013594;28;46095;-73
2022/01/21 14:32:18;;;;;;;;;7.75;7.75;;;;;;;;5014921;28;45338;-71
2022/01/21 14:34:44;;;;;;;;;10.00;10.00;;;;;;;;5016683;28;45374;-73
2022/01/21 14:37:12;;;;;;;;;9.00;9.00;;;;;;;;5012693;28;45309;-72
2022/01/21 14:39:40;;;;;;;;;10.75;6.50;;;;;;;;5011809;28;46771;-73
2022/01/21 14:42:06;;;;;;;;;9.00;8.00;;;;;;;;5014150;28;45365;-72
2022/01/21 14:44:46;;;;;;;;;10.75;10.75;;;;;;;;5029719;28;45433;-72
2022/01/21 14:47:11;;;;;;;;;13.50;12.50;;;;;;;;5012630;28;45579;-72
2022/01/21 14:49:37;;;;;;;;;9.75;8.75;;;;;;;;5011925;28;46176;-73
2022/01/21 14:52:33;;;;;;;;;12.25;8.50;;;;;;;;5017362;28;45262;-73
2022/01/21 14:54:48;;;;;;;;;9.25;8.75;;;;;;;;5011658;28;45474;-72
2022/01/21 14:57:14;;;;;;;;;8.25;8.25;;;;;;;;5012489;28;45551;-72
2022/01/21 14:59:53;;;;;;;;;9.00;7.25;;;;;;;;5015717;28;45450;-72
2022/01/21 15:02:27;;;;;;;;;9.25;7.25;;;;;;;;5013792;28;45346;-71
2022/01/21 15:04:53;;;;;;;;;10.00;10.00;;;;;;;;5011881;28;45505;-72
2022/01/21 15:07:23;;;;;;;;;9.75;7.25;;;;;;;;5011262;28;45531;-71
2022/01/21 15:09:50;;;;;;;;;8.75;8.00;;;;;;;;5011690;28;46102;-70
2022/01/21 15:15:46;;;;;;;;;11.75;9.25;;;;;;;;5001686;28;45527;-71
2022/01/21 15:18:15;;;;;;;;;7.75;5.00;;;;;;;;4979229;28;45507;-73
2022/01/21 15:20:42;;;;;;;;;8.00;7.50;;;;;;;;5015371;28;45526;-72
2022/01/21 15:23:08;;;;;;;;;13.25;10.00;;;;;;;;5012144;28;45471;-72
2022/01/21 15:25:34;;;;;;;;;10.00;10.00;;;;;;;;5011555;28;45604;-73
2022/01/21 15:28:00;;;;;;;;;9.75;9.75;;;;;;;;5011679;28;45359;-73